Terminal Aerodrome Forecast
Issued by NWS Raleigh/Durham, NC

Home | Current Version | Previous Version | Text Only | Print | Product List | Glossary On
Versions: 1 2 3 4 5 6 7 8 9 10 11 12 13 14 15 16 17 18 19 20 21 22 23 24 25 26 27 28 29 30 31 32 33 34 35 36 37 38 39 40 41 42 43 44 45 46 47 48
000
FTUS42 KRAH 261415 AAA
TAFGSO
TAF AMD
KGSO 261415Z 2614/2712 04008KT P6SM OVC005
      TEMPO 2614/2616 4SM -RA
     FM261600 01008KT 6SM BR OVC008
     FM262000 02007KT P6SM OVC025
     FM270000 03005KT P6SM SCT050 BKN250=

USA.gov is the U.S. government's official web portal to all federal, state and local government web resources and services.